createdAt,value
2018-07-02T00:00:19.059Z,33.64
2018-07-02T00:01:28.807Z,33.34
2018-07-02T00:02:38.604Z,33.73
2018-07-02T00:03:48.137Z,33.15
2018-07-02T00:04:57.980Z,33.34
2018-07-02T00:06:07.765Z,33.44
2018-07-02T00:07:17.255Z,33.44
2018-07-02T00:08:26.485Z,33.54
2018-07-02T00:09:36.006Z,33.34
2018-07-02T00:10:45.236Z,33.34
2018-07-02T00:11:54.766Z,33.34
2018-07-02T00:13:04.267Z,33.44
2018-07-02T00:14:14.040Z,33.44
2018-07-02T00:15:23.755Z,33.25
2018-07-02T00:16:33.440Z,33.25
2018-07-02T00:17:42.685Z,33.34
2018-07-02T00:18:52.514Z,33.25
2018-07-02T00:20:01.160Z,33.44
2018-07-02T00:21:10.079Z,33.25
2018-07-02T00:22:19.816Z,33.15
2018-07-02T00:23:29.059Z,33.34
2018-07-02T00:24:38.279Z,32.96
2018-07-02T00:25:47.963Z,33.15
2018-07-02T00:26:58.159Z,32.96
2018-07-02T00:28:07.654Z,32.96
2018-07-02T00:29:17.447Z,33.15
2018-07-02T00:30:26.082Z,33.06
2018-07-02T00:31:35.363Z,33.06
2018-07-02T00:32:45.834Z,33.06
2018-07-02T00:33:56.285Z,33.06
2018-07-02T00:35:05.899Z,33.06
2018-07-02T00:36:15.136Z,33.25
2018-07-02T00:37:24.365Z,33.25
2018-07-02T00:38:34.133Z,33.34
2018-07-02T00:39:44.055Z,33.25
2018-07-02T00:40:53.519Z,32.67
2018-07-02T00:42:03.307Z,32.86
2018-07-02T00:43:12.836Z,32.96
2018-07-02T00:44:23.967Z,32.86
2018-07-02T00:45:33.161Z,32.76
2018-07-02T00:46:42.736Z,33.06
2018-07-02T00:47:52.212Z,32.96
2018-07-02T00:49:01.975Z,32.76
2018-07-02T00:50:11.737Z,32.76
2018-07-02T00:51:21.518Z,32.76
2018-07-02T00:52:31.311Z,32.76
2018-07-02T00:53:39.950Z,32.67
2018-07-02T00:54:49.968Z,32.76
2018-07-02T00:55:59.740Z,32.67
2018-07-02T00:57:09.314Z,32.76
2018-07-02T00:58:18.531Z,32.76
2018-07-02T00:59:27.486Z,32.57
2018-07-02T01:00:36.692Z,32.57
2018-07-02T01:01:47.090Z,32.57
2018-07-02T01:02:57.526Z,32.57
2018-07-02T01:04:07.806Z,32.67
2018-07-02T01:05:17.277Z,32.86
2018-07-02T01:06:26.813Z,32.57
2018-07-02T01:07:36.582Z,32.57
2018-07-02T01:08:45.778Z,32.57
2018-07-02T01:09:57.140Z,32.37
2018-07-02T01:11:05.771Z,32.47
2018-07-02T01:12:14.995Z,32.37
2018-07-02T01:13:24.219Z,32.47
2018-07-02T01:14:33.708Z,32.37
2018-07-02T01:15:44.836Z,32.47
2018-07-02T01:16:54.107Z,32.37
2018-07-02T01:18:03.619Z,32.37
2018-07-02T01:19:13.524Z,32.47
2018-07-02T01:20:23.363Z,32.28
2018-07-02T01:21:33.361Z,32.57
2018-07-02T01:22:42.556Z,32.28
2018-07-02T01:23:51.780Z,32.28
2018-07-02T01:25:01.276Z,32.28
2018-07-02T01:26:10.480Z,32.37
2018-07-02T01:27:20.473Z,32.28
2018-07-02T01:28:30.262Z,32.37
2018-07-02T01:29:39.482Z,32.28
2018-07-02T01:30:49.004Z,32.18
2018-07-02T01:32:00.173Z,32.18
2018-07-02T01:33:09.981Z,32.18
2018-07-02T01:34:20.265Z,32.18
2018-07-02T01:35:30.645Z,31.99
2018-07-02T01:36:39.864Z,32.18
2018-07-02T01:37:49.358Z,32.18
2018-07-02T01:38:58.830Z,32.09
2018-07-02T01:40:08.340Z,32.09
2018-07-02T01:41:18.235Z,32.09
2018-07-02T01:42:27.448Z,32.18
2018-07-02T01:43:36.093Z,32.18
2018-07-02T01:44:45.890Z,32.18
2018-07-02T01:45:55.104Z,32.09
2018-07-02T01:47:04.788Z,32.18
2018-07-02T01:48:14.019Z,31.99
2018-07-02T01:49:24.205Z,32.18
2018-07-02T01:50:34.015Z,32.09
2018-07-02T01:51:43.529Z,31.99
2018-07-02T01:52:53.049Z,32.09
2018-07-02T01:54:02.991Z,32.09
2018-07-02T01:55:13.963Z,32.09
2018-07-02T01:56:23.436Z,32.18
2018-07-02T01:57:33.196Z,32.09
2018-07-02T01:58:42.928Z,31.99
2018-07-02T01:59:52.399Z,31.89
2018-07-02T02:01:02.850Z,31.99
2018-07-02T02:02:13.909Z,31.89
2018-07-02T02:03:24.254Z,31.89
2018-07-02T02:04:33.970Z,31.99
2018-07-02T02:05:43.724Z,31.99
2018-07-02T02:06:53.487Z,31.79
2018-07-02T02:08:02.978Z,31.99
2018-07-02T02:09:12.754Z,31.89
2018-07-02T02:10:21.937Z,31.89
2018-07-02T02:11:32.277Z,31.89
2018-07-02T02:12:43.251Z,31.7
2018-07-02T02:13:53.738Z,31.79
2018-07-02T02:15:03.766Z,31.79
2018-07-02T02:16:13.275Z,31.99
2018-07-02T02:17:22.479Z,31.89
2018-07-02T02:18:32.211Z,31.89
2018-07-02T02:19:42.208Z,31.89
2018-07-02T02:20:52.275Z,31.79
2018-07-02T02:22:03.044Z,31.79
2018-07-02T02:23:15.229Z,31.7
2018-07-02T02:24:25.338Z,31.89
2018-07-02T02:25:34.533Z,31.7
2018-07-02T02:26:44.002Z,31.79
2018-07-02T02:27:53.185Z,31.7
2018-07-02T02:29:02.665Z,31.79
2018-07-02T02:30:11.881Z,31.79
2018-07-02T02:31:22.315Z,31.79
2018-07-02T02:32:32.317Z,31.89
2018-07-02T02:33:42.712Z,31.79
2018-07-02T02:34:51.883Z,31.79
2018-07-02T02:36:00.789Z,31.6
2018-07-02T02:37:09.982Z,31.7
2018-07-02T02:38:20.136Z,31.6
2018-07-02T02:39:30.293Z,31.59
2018-07-02T02:40:40.536Z,31.7
2018-07-02T02:41:51.208Z,31.79
2018-07-02T02:43:00.985Z,31.59
2018-07-02T02:44:11.439Z,31.68
2018-07-02T02:45:21.163Z,31.6
2018-07-02T02:46:30.905Z,31.79
2018-07-02T02:47:40.358Z,31.78
2018-07-02T02:48:50.101Z,31.68
2018-07-02T02:50:00.553Z,31.78
2018-07-02T02:51:10.838Z,31.7
2018-07-02T02:52:20.048Z,31.6
2018-07-02T02:53:30.015Z,31.7
2018-07-02T02:54:39.498Z,31.7
2018-07-02T02:55:49.049Z,31.78
2018-07-02T02:56:58.531Z,31.68
2018-07-02T02:58:08.310Z,31.79
2018-07-02T02:59:18.164Z,31.7
2018-07-02T03:00:28.550Z,31.68
2018-07-02T03:01:39.602Z,31.68
2018-07-02T03:02:48.257Z,31.59
2018-07-02T03:03:58.285Z,31.6
2018-07-02T03:05:07.904Z,31.59
2018-07-02T03:06:17.346Z,31.7
2018-07-02T03:07:26.807Z,31.6
2018-07-02T03:08:36.295Z,31.59
2018-07-02T03:09:45.911Z,31.59
2018-07-02T03:10:56.150Z,31.59
2018-07-02T03:12:06.110Z,31.7
2018-07-02T03:13:17.325Z,31.7
2018-07-02T03:14:28.116Z,31.6
2018-07-02T03:15:37.573Z,31.6
2018-07-02T03:16:47.322Z,31.68
2018-07-02T03:17:57.371Z,31.7
2018-07-02T03:19:07.136Z,31.59
2018-07-02T03:20:17.040Z,31.6
2018-07-02T03:21:26.314Z,31.6
2018-07-02T03:22:36.664Z,31.6
2018-07-02T03:23:47.113Z,31.59
2018-07-02T03:24:57.316Z,31.5
2018-07-02T03:26:07.097Z,31.6
2018-07-02T03:27:17.104Z,31.49
2018-07-02T03:28:26.560Z,31.49
2018-07-02T03:29:35.766Z,31.59
2018-07-02T03:30:45.772Z,31.49
2018-07-02T03:31:55.250Z,31.5
2018-07-02T03:33:05.535Z,31.49
2018-07-02T03:34:15.773Z,31.49
2018-07-02T03:35:24.973Z,31.49
2018-07-02T03:36:34.159Z,31.49
2018-07-02T03:37:43.622Z,31.29
2018-07-02T03:38:52.532Z,31.49
2018-07-02T03:40:01.972Z,31.49
2018-07-02T03:41:11.445Z,31.39
2018-07-02T03:42:22.025Z,31.29
2018-07-02T03:43:31.764Z,31.39
2018-07-02T03:44:40.953Z,31.39
2018-07-02T03:45:50.464Z,31.39
2018-07-02T03:46:59.955Z,31.39
2018-07-02T03:48:09.958Z,31.39
2018-07-02T03:49:19.816Z,31.49
2018-07-02T03:50:31.248Z,31.39
2018-07-02T03:51:39.882Z,31.49
2018-07-02T03:52:49.350Z,31.39
2018-07-02T03:53:59.145Z,31.39
2018-07-02T03:55:08.375Z,31.39
2018-07-02T03:56:17.590Z,31.39
2018-07-02T03:57:27.806Z,31.39
2018-07-02T03:58:37.526Z,31.39
2018-07-02T03:59:48.578Z,31.39
2018-07-02T04:00:58.308Z,31.39
2018-07-02T04:02:07.542Z,31.39
2018-07-02T04:03:17.295Z,31.39
2018-07-02T04:04:26.476Z,31.39
2018-07-02T04:05:36.012Z,31.21
2018-07-02T04:06:45.904Z,31.39
2018-07-02T04:07:56.402Z,31.29
2018-07-02T04:09:05.033Z,31.39
2018-07-02T04:10:14.527Z,31.29
2018-07-02T04:11:23.176Z,31.29
2018-07-02T04:12:32.363Z,31.29
2018-07-02T04:13:42.153Z,31.29
2018-07-02T04:14:51.913Z,31.39
2018-07-02T04:16:02.642Z,31.39
2018-07-02T04:17:13.533Z,31.39
2018-07-02T04:18:23.623Z,31.29
2018-07-02T04:19:33.158Z,31.39
2018-07-02T04:20:42.991Z,31.29
2018-07-02T04:21:52.182Z,31.39
2018-07-02T04:23:01.960Z,31.39
2018-07-02T04:24:11.425Z,31.2
2018-07-02T04:25:20.659Z,31.39
2018-07-02T04:26:30.239Z,31.39
2018-07-02T04:27:39.713Z,31.1
2018-07-02T04:28:48.906Z,31.29
2018-07-02T04:29:58.833Z,31.29
2018-07-02T04:31:08.048Z,31.2
2018-07-02T04:32:17.981Z,31.2
2018-07-02T04:33:27.191Z,31.29
2018-07-02T04:34:36.675Z,31.2
2018-07-02T04:35:46.442Z,31.2
2018-07-02T04:36:55.634Z,31.1
2018-07-02T04:38:05.437Z,31.2
2018-07-02T04:39:15.748Z,31.29
2018-07-02T04:40:25.805Z,31.2
2018-07-02T04:41:37.371Z,31.29
2018-07-02T04:42:48.727Z,31.2
2018-07-02T04:43:58.833Z,31.2
2018-07-02T04:45:10.489Z,31.29
2018-07-02T04:46:22.184Z,31.39
2018-07-02T04:47:31.380Z,31.39
2018-07-02T04:48:42.412Z,31.2
2018-07-02T04:49:52.535Z,31.2
2018-07-02T04:51:01.968Z,31.2
2018-07-02T04:52:12.717Z,31.1
2018-07-02T04:53:23.404Z,31.2
2018-07-02T04:54:33.188Z,31.1
2018-07-02T04:55:43.015Z,31.2
2018-07-02T04:56:53.905Z,31.2
2018-07-02T04:58:04.821Z,31.2
2018-07-02T04:59:14.718Z,31.2
2018-07-02T05:00:24.522Z,31.2
2018-07-02T05:01:35.547Z,31.01
2018-07-02T05:02:44.697Z,31.01
2018-07-02T05:03:54.116Z,30.91
2018-07-02T05:05:03.269Z,31.1
2018-07-02T05:06:12.437Z,30.91
2018-07-02T05:07:21.866Z,31.1
2018-07-02T05:08:30.521Z,31.1
2018-07-02T05:09:39.427Z,31.1
2018-07-02T05:10:48.575Z,31.1
2018-07-02T05:11:58.233Z,31.2
2018-07-02T05:13:07.698Z,31.1
2018-07-02T05:14:17.372Z,31.2
2018-07-02T05:15:27.030Z,31.1
2018-07-02T05:16:36.698Z,31.01
2018-07-02T05:17:45.850Z,31.01
2018-07-02T05:18:55.582Z,31.01
2018-07-02T05:20:05.282Z,31.01
2018-07-02T05:21:14.952Z,30.91
2018-07-02T05:22:24.618Z,31.01
2018-07-02T05:23:33.768Z,31.1
2018-07-02T05:24:43.439Z,31.1
2018-07-02T05:25:52.585Z,30.91
2018-07-02T05:27:02.260Z,31.2
2018-07-02T05:28:11.661Z,31.01
2018-07-02T05:29:21.068Z,30.91
2018-07-02T05:30:30.731Z,30.81
2018-07-02T05:31:40.417Z,31.01
2018-07-02T05:32:49.579Z,30.81
2018-07-02T05:33:58.735Z,30.91
2018-07-02T05:35:08.149Z,30.91
2018-07-02T05:36:17.302Z,31.01
2018-07-02T05:37:26.990Z,30.71
2018-07-02T05:38:36.148Z,30.81
2018-07-02T05:39:45.051Z,30.91
2018-07-02T05:40:54.450Z,30.91
2018-07-02T05:42:03.862Z,30.81
2018-07-02T05:43:13.013Z,30.91
2018-07-02T05:44:22.416Z,30.81
2018-07-02T05:45:32.085Z,30.71
2018-07-02T05:46:41.490Z,30.81
2018-07-02T05:47:50.910Z,30.81
2018-07-02T05:49:00.340Z,30.71
2018-07-02T05:50:09.482Z,30.71
2018-07-02T05:51:18.115Z,30.81
2018-07-02T05:52:28.028Z,30.81
2018-07-02T05:53:37.700Z,30.62
2018-07-02T05:54:47.134Z,30.62
2018-07-02T05:55:56.383Z,30.52
2018-07-02T05:57:05.786Z,30.62
2018-07-02T05:58:14.992Z,30.71
2018-07-02T05:59:24.417Z,30.71
2018-07-02T06:00:34.027Z,30.71
2018-07-02T06:01:44.320Z,30.71
2018-07-02T06:02:53.988Z,30.23
2018-07-02T06:04:04.004Z,30.23
2018-07-02T06:05:13.420Z,30.32
2018-07-02T06:06:22.844Z,30.32
2018-07-02T06:07:32.262Z,30.32
2018-07-02T06:08:41.165Z,30.52
2018-07-02T06:09:50.605Z,30.23
2018-07-02T06:11:00.261Z,30.13
2018-07-02T06:12:09.925Z,30.52
2018-07-02T06:13:20.166Z,30.13
2018-07-02T06:14:29.337Z,30.32
2018-07-02T06:15:39.010Z,30.32
2018-07-02T06:16:48.680Z,30.34
2018-07-02T06:17:58.351Z,30.42
2018-07-02T06:19:07.802Z,30.42
2018-07-02T06:20:16.955Z,30.42
2018-07-02T06:21:26.638Z,30.42
2018-07-02T06:22:36.292Z,30.42
2018-07-02T06:23:45.681Z,30.32
2018-07-02T06:24:55.229Z,30.42
2018-07-02T06:26:04.382Z,30.44
2018-07-02T06:27:13.569Z,30.23
2018-07-02T06:28:22.984Z,30.44
2018-07-02T06:29:32.399Z,30.15
2018-07-02T06:30:41.804Z,30.44
2018-07-02T06:31:51.484Z,30.63
2018-07-02T06:33:00.631Z,30.15
2018-07-02T06:34:09.785Z,30.15
2018-07-02T06:35:19.461Z,30.24
2018-07-02T06:36:28.607Z,30.34
2018-07-02T06:37:37.526Z,30.15
2018-07-02T06:38:47.033Z,30.24
2018-07-02T06:39:56.456Z,30.15
2018-07-02T06:41:05.866Z,30.34
2018-07-02T06:42:15.522Z,30.15
2018-07-02T06:43:25.463Z,30.34
2018-07-02T06:44:34.627Z,30.24
2018-07-02T06:45:44.291Z,30.15
2018-07-02T06:46:53.699Z,30.15
2018-07-02T06:48:03.125Z,30.24
2018-07-02T06:49:12.540Z,30.15
2018-07-02T06:50:22.480Z,30.34
2018-07-02T06:51:31.658Z,30.24
2018-07-02T06:52:41.321Z,30.24
2018-07-02T06:53:50.224Z,30.15
2018-07-02T06:54:59.376Z,30.24
2018-07-02T06:56:08.777Z,30.24
2018-07-02T06:57:18.179Z,30.34
2018-07-02T06:58:27.597Z,30.15
2018-07-02T06:59:37.084Z,30.15
2018-07-02T07:00:46.746Z,30.15
2018-07-02T07:01:56.160Z,30.24
2018-07-02T07:03:05.829Z,30.24
2018-07-02T07:04:14.720Z,30.24
2018-07-02T07:05:23.865Z,30.24
2018-07-02T07:06:33.262Z,30.15
2018-07-02T07:07:43.185Z,30.24
2018-07-02T07:08:52.850Z,30.24
2018-07-02T07:10:02.257Z,30.54
2018-07-02T07:11:12.210Z,30.54
2018-07-02T07:12:21.609Z,30.34
2018-07-02T07:13:30.511Z,30.34
2018-07-02T07:14:39.976Z,30.54
2018-07-02T07:15:49.378Z,30.44
2018-07-02T07:16:59.043Z,30.44
2018-07-02T07:18:08.950Z,30.24
2018-07-02T07:19:18.094Z,30.34
2018-07-02T07:20:28.026Z,30.34
2018-07-02T07:21:37.435Z,30.34
2018-07-02T07:22:47.121Z,30.34
2018-07-02T07:23:56.551Z,30.15
2018-07-02T07:25:06.464Z,30.15
2018-07-02T07:26:16.152Z,30.15
2018-07-02T07:27:25.824Z,30.24
2018-07-02T07:28:35.621Z,30.73
2018-07-02T07:29:44.769Z,30.63
2018-07-02T07:30:54.436Z,30.63
2018-07-02T07:32:03.615Z,30.63
2018-07-02T07:33:13.278Z,30.54
2018-07-02T07:34:22.941Z,30.73
2018-07-02T07:35:32.371Z,30.54
2018-07-02T07:36:41.515Z,30.63
2018-07-02T07:37:50.658Z,30.54
2018-07-02T07:39:00.139Z,30.63
2018-07-02T07:40:09.318Z,30.54
2018-07-02T07:41:18.983Z,30.54
2018-07-02T07:42:28.644Z,30.54
2018-07-02T07:43:38.311Z,30.63
2018-07-02T07:44:47.840Z,30.54
2018-07-02T07:45:57.345Z,30.34
2018-07-02T07:47:06.494Z,30.54
2018-07-02T07:48:16.433Z,30.82
2018-07-02T07:49:25.837Z,30.63
2018-07-02T07:50:35.507Z,30.63
2018-07-02T07:51:45.168Z,30.63
2018-07-02T07:52:55.092Z,30.73
2018-07-02T07:54:04.537Z,30.54
2018-07-02T07:55:13.440Z,30.82
2018-07-02T07:56:23.121Z,30.82
2018-07-02T07:57:32.519Z,30.63
2018-07-02T07:58:42.182Z,30.82
2018-07-02T07:59:51.849Z,30.73
2018-07-02T08:01:01.522Z,30.92
2018-07-02T08:02:11.376Z,31.02
2018-07-02T08:03:20.793Z,30.92
2018-07-02T08:04:30.216Z,30.92
2018-07-02T08:05:39.621Z,30.92
2018-07-02T08:06:49.306Z,30.92
2018-07-02T08:07:58.477Z,30.82
2018-07-02T08:09:07.879Z,30.82
2018-07-02T08:10:17.552Z,30.82
2018-07-02T08:11:27.527Z,30.82
2018-07-02T08:12:37.489Z,31.02
2018-07-02T08:13:46.663Z,31.02
2018-07-02T08:14:56.329Z,30.82
2018-07-02T08:16:06.264Z,30.92
2018-07-02T08:17:15.964Z,30.82
2018-07-02T08:18:24.837Z,30.92
2018-07-02T08:19:34.503Z,31.12
2018-07-02T08:20:44.171Z,31.12
2018-07-02T08:21:53.076Z,30.82
2018-07-02T08:23:03.028Z,30.92
2018-07-02T08:24:11.660Z,31.12
2018-07-02T08:25:21.071Z,31.02
2018-07-02T08:26:30.578Z,30.92
2018-07-02T08:27:39.994Z,31.12
2018-07-02T08:28:49.433Z,31.12
2018-07-02T08:29:58.849Z,31.12
2018-07-02T08:31:07.754Z,31.12
2018-07-02T08:32:17.164Z,31.21
2018-07-02T08:33:26.562Z,31.12
2018-07-02T08:34:35.454Z,31.12
2018-07-02T08:35:44.613Z,31.02
2018-07-02T08:36:54.553Z,31.02
2018-07-02T08:38:04.296Z,31.12
2018-07-02T08:39:12.936Z,31.02
2018-07-02T08:40:22.620Z,31.21
2018-07-02T08:41:32.122Z,31.21
2018-07-02T08:42:42.220Z,31.31
2018-07-02T08:43:51.370Z,31.12
2018-07-02T08:45:01.298Z,31.12
2018-07-02T08:46:11.010Z,31.21
2018-07-02T08:47:20.432Z,31.12
2018-07-02T08:48:29.837Z,31.31
2018-07-02T08:49:39.270Z,31.21
2018-07-02T08:50:48.180Z,31.21
2018-07-02T08:51:57.586Z,31.31
2018-07-02T08:53:07.030Z,31.21
2018-07-02T08:54:16.692Z,31.21
2018-07-02T08:55:26.622Z,31.31
2018-07-02T08:56:35.775Z,31.31
2018-07-02T08:57:44.937Z,31.42
2018-07-02T08:58:54.098Z,31.41
2018-07-02T09:00:03.546Z,31.41
2018-07-02T09:01:12.964Z,31.31
2018-07-02T09:02:22.643Z,31.21
2018-07-02T09:03:32.056Z,31.31
2018-07-02T09:04:41.984Z,31.41
2018-07-02T09:05:51.401Z,31.6
2018-07-02T09:07:00.680Z,31.41
2018-07-02T09:08:10.090Z,31.41
2018-07-02T09:09:19.517Z,31.5
2018-07-02T09:10:29.194Z,31.5
2018-07-02T09:11:38.849Z,31.5
2018-07-02T09:12:48.275Z,31.41
2018-07-02T09:13:57.699Z,31.5
2018-07-02T09:15:07.623Z,31.41
2018-07-02T09:16:17.568Z,31.5
2018-07-02T09:17:27.253Z,31.41
2018-07-02T09:18:36.973Z,31.41
2018-07-02T09:19:46.383Z,31.41
2018-07-02T09:20:55.597Z,31.5
2018-07-02T09:22:04.489Z,31.5
2018-07-02T09:23:13.661Z,31.62
2018-07-02T09:24:22.806Z,31.6
2018-07-02T09:25:31.697Z,31.62
2018-07-02T09:26:40.602Z,31.5
2018-07-02T09:27:50.017Z,31.6
2018-07-02T09:28:59.747Z,31.6
2018-07-02T09:30:09.178Z,31.6
2018-07-02T09:31:18.852Z,31.71
2018-07-02T09:32:28.291Z,31.7
2018-07-02T09:33:38.219Z,31.71
2018-07-02T09:34:47.109Z,31.62
2018-07-02T09:35:56.776Z,31.71
2018-07-02T09:37:06.442Z,31.52
2018-07-02T09:38:15.867Z,31.62
2018-07-02T09:39:25.691Z,31.71
2018-07-02T09:40:35.496Z,31.71
2018-07-02T09:41:44.636Z,31.71
2018-07-02T09:42:54.569Z,31.71
2018-07-02T09:44:03.975Z,31.71
2018-07-02T09:45:13.194Z,31.71
2018-07-02T09:46:23.139Z,31.62
2018-07-02T09:47:32.577Z,31.7
2018-07-02T09:48:41.977Z,31.62
2018-07-02T09:49:51.645Z,31.62
2018-07-02T09:51:01.269Z,31.81
2018-07-02T09:52:10.938Z,31.6
2018-07-02T09:53:20.343Z,31.7
2018-07-02T09:54:29.901Z,31.71
2018-07-02T09:55:39.045Z,31.7
2018-07-02T09:56:48.709Z,31.79
2018-07-02T09:57:57.598Z,31.79
2018-07-02T09:59:07.268Z,31.79
2018-07-02T10:00:16.684Z,31.81
2018-07-02T10:01:26.111Z,31.79
2018-07-02T10:02:35.516Z,31.89
2018-07-02T10:03:44.414Z,31.79
2018-07-02T10:04:53.591Z,31.81
2018-07-02T10:06:03.053Z,31.71
2018-07-02T10:07:12.739Z,31.81
2018-07-02T10:08:21.653Z,31.81
2018-07-02T10:09:31.351Z,31.81
2018-07-02T10:10:40.780Z,31.7
2018-07-02T10:11:50.901Z,31.91
2018-07-02T10:13:00.332Z,31.79
2018-07-02T10:14:09.768Z,31.91
2018-07-02T10:15:19.190Z,31.91
2018-07-02T10:16:28.600Z,31.91
2018-07-02T10:17:38.261Z,31.99
2018-07-02T10:18:47.409Z,31.81
2018-07-02T10:19:56.809Z,31.81
2018-07-02T10:21:06.470Z,31.91
2018-07-02T10:22:15.628Z,32.1
2018-07-02T10:23:24.300Z,32
2018-07-02T10:24:33.776Z,31.91
2018-07-02T10:25:43.443Z,32.1
2018-07-02T10:26:52.680Z,31.91
2018-07-02T10:28:02.079Z,32.1
2018-07-02T10:29:11.352Z,32.1
2018-07-02T10:30:21.347Z,32.1
2018-07-02T10:31:31.171Z,32.1
2018-07-02T10:32:40.579Z,32.1
2018-07-02T10:33:50.257Z,32.1
2018-07-02T10:35:00.181Z,32
2018-07-02T10:36:09.851Z,32.1
2018-07-02T10:37:19.256Z,32.1
2018-07-02T10:38:28.441Z,32.2
2018-07-02T10:39:37.859Z,32.2
2018-07-02T10:40:47.284Z,32.2
2018-07-02T10:41:56.955Z,32
2018-07-02T10:43:06.116Z,32.2
2018-07-02T10:44:15.557Z,32.1
2018-07-02T10:45:24.713Z,32.1
2018-07-02T10:46:34.120Z,32.1
2018-07-02T10:47:43.278Z,32.2
2018-07-02T10:48:52.679Z,32.2
2018-07-02T10:50:02.344Z,32.2
2018-07-02T10:51:11.753Z,32.1
2018-07-02T10:52:21.151Z,32.1
2018-07-02T10:53:30.294Z,32.1
2018-07-02T10:54:39.976Z,32.1
2018-07-02T10:55:49.989Z,32.2
2018-07-02T10:56:59.416Z,32.29
2018-07-02T10:58:08.824Z,32.29
2018-07-02T10:59:18.491Z,32.29
2018-07-02T11:00:27.655Z,32.49
2018-07-02T11:01:37.077Z,32.29
2018-07-02T11:02:46.760Z,32.29
2018-07-02T11:03:55.673Z,32.39
2018-07-02T11:05:04.582Z,32.29
2018-07-02T11:06:13.543Z,32.39
2018-07-02T11:07:22.957Z,32.2
2018-07-02T11:08:32.642Z,32.29
2018-07-02T11:09:42.589Z,32.29
2018-07-02T11:10:52.249Z,32.39
2018-07-02T11:12:01.653Z,32.29
2018-07-02T11:13:10.827Z,32.39
2018-07-02T11:14:20.761Z,32.39
2018-07-02T11:15:30.420Z,32.39
2018-07-02T11:16:39.313Z,32.29
2018-07-02T11:17:48.736Z,32.29
2018-07-02T11:18:58.399Z,32.39
2018-07-02T11:20:07.564Z,32.29
2018-07-02T11:21:16.716Z,32.49
2018-07-02T11:22:25.610Z,32.39
2018-07-02T11:23:34.790Z,32.49
2018-07-02T11:24:44.853Z,32.49
2018-07-02T11:25:54.280Z,32.49
2018-07-02T11:27:03.708Z,32.49
2018-07-02T11:28:13.130Z,32.39
2018-07-02T11:29:22.544Z,32.39
2018-07-02T11:30:31.955Z,32.68
2018-07-02T11:31:41.109Z,32.59
2018-07-02T11:32:50.519Z,32.59
2018-07-02T11:33:59.993Z,32.59
2018-07-02T11:35:08.889Z,32.59
2018-07-02T11:36:18.048Z,32.78
2018-07-02T11:37:27.235Z,32.59
2018-07-02T11:38:36.788Z,32.68
2018-07-02T11:39:45.693Z,32.49
2018-07-02T11:40:54.832Z,32.49
2018-07-02T11:42:04.754Z,32.49
2018-07-02T11:43:14.166Z,32.59
2018-07-02T11:44:23.598Z,32.68
2018-07-02T11:45:32.998Z,32.78
2018-07-02T11:46:42.410Z,32.49
2018-07-02T11:47:51.559Z,32.59
2018-07-02T11:49:00.707Z,32.59
2018-07-02T11:50:09.860Z,32.59
2018-07-02T11:51:19.279Z,32.68
2018-07-02T11:52:28.172Z,32.78
2018-07-02T11:53:37.627Z,32.59
2018-07-02T11:54:46.786Z,32.78
2018-07-02T11:55:55.677Z,32.78
2018-07-02T11:57:05.607Z,32.68
2018-07-02T11:58:15.023Z,32.87
2018-07-02T11:59:24.181Z,32.87
2018-07-02T12:00:33.329Z,32.78
2018-07-02T12:01:42.499Z,32.78
2018-07-02T12:02:51.675Z,32.78
2018-07-02T12:04:00.828Z,32.78
2018-07-02T12:05:10.242Z,32.68
2018-07-02T12:06:19.406Z,32.78
2018-07-02T12:07:28.854Z,32.78
2018-07-02T12:08:38.766Z,32.78
2018-07-02T12:09:48.178Z,32.68
2018-07-02T12:10:57.690Z,32.78
2018-07-02T12:12:07.617Z,32.68
2018-07-02T12:13:17.286Z,32.68
2018-07-02T12:14:26.698Z,32.97
2018-07-02T12:15:35.919Z,33.07
2018-07-02T12:16:44.808Z,33.07
2018-07-02T12:17:54.214Z,33.17
2018-07-02T12:19:04.141Z,32.97
2018-07-02T12:20:13.555Z,32.87
2018-07-02T12:21:23.214Z,32.87
2018-07-02T12:22:33.121Z,32.68
2018-07-02T12:23:42.031Z,32.68
2018-07-02T12:24:51.447Z,32.68
2018-07-02T12:26:00.603Z,33.36
2018-07-02T12:27:10.054Z,33.07
2018-07-02T12:28:19.721Z,33.07
2018-07-02T12:29:29.397Z,33.07
2018-07-02T12:30:38.556Z,33.26
2018-07-02T12:31:47.697Z,33.17
2018-07-02T12:32:56.597Z,32.97
2018-07-02T12:34:05.996Z,33.07
2018-07-02T12:35:15.470Z,32.97
2018-07-02T12:36:24.637Z,33.07
2018-07-02T12:37:34.315Z,32.78
2018-07-02T12:38:43.726Z,33.07
2018-07-02T12:39:53.399Z,33.07
2018-07-02T12:41:02.584Z,33.07
2018-07-02T12:42:11.481Z,33.07
2018-07-02T12:43:20.911Z,33.07
2018-07-02T12:44:30.317Z,32.87
2018-07-02T12:45:39.471Z,33.07
2018-07-02T12:46:49.027Z,33.07
2018-07-02T12:47:58.499Z,32.97
2018-07-02T12:49:07.386Z,32.97
2018-07-02T12:50:16.536Z,32.97
2018-07-02T12:51:25.685Z,32.97
2018-07-02T12:52:34.842Z,33.07
2018-07-02T12:53:44.272Z,32.97
2018-07-02T12:54:53.938Z,33.07
2018-07-02T12:56:02.570Z,33.17
2018-07-02T12:57:12.513Z,33.17
2018-07-02T12:58:22.190Z,33.07
2018-07-02T12:59:31.610Z,33.07
2018-07-02T13:00:41.546Z,33.07
2018-07-02T13:01:50.964Z,33.07
2018-07-02T13:02:59.866Z,33.17
2018-07-02T13:04:09.020Z,33.17
2018-07-02T13:05:18.505Z,33.07
2018-07-02T13:06:28.191Z,33.26
2018-07-02T13:07:37.598Z,33.26
2018-07-02T13:08:47.005Z,33.26
2018-07-02T13:09:56.416Z,33.26
2018-07-02T13:11:05.824Z,33.17
2018-07-02T13:12:15.254Z,33.17
2018-07-02T13:13:24.408Z,33.36
2018-07-02T13:14:34.255Z,33.36
2018-07-02T13:15:43.920Z,33.17
2018-07-02T13:16:53.599Z,33.26
2018-07-02T13:18:03.020Z,33.36
2018-07-02T13:19:12.703Z,33.17
2018-07-02T13:20:21.597Z,33.17
2018-07-02T13:21:30.998Z,33.17
2018-07-02T13:22:40.660Z,33.17
2018-07-02T13:23:49.806Z,33.36
2018-07-02T13:24:59.468Z,33.36
2018-07-02T13:26:08.896Z,33.17
2018-07-02T13:27:18.809Z,33.17
2018-07-02T13:28:28.522Z,33.36
2018-07-02T13:29:37.656Z,33.36
2018-07-02T13:30:46.800Z,33.36
2018-07-02T13:31:56.205Z,33.26
2018-07-02T13:33:05.862Z,33.36
2018-07-02T13:34:15.276Z,33.26
2018-07-02T13:35:24.959Z,33.36
2018-07-02T13:36:34.727Z,33.46
2018-07-02T13:37:45.214Z,33.36
2018-07-02T13:38:54.724Z,33.26
2018-07-02T13:40:04.401Z,33.46
2018-07-02T13:41:14.079Z,33.47
2018-07-02T13:42:23.484Z,33.28
2018-07-02T13:43:33.165Z,33.28
2018-07-02T13:44:42.858Z,33.38
2018-07-02T13:45:52.535Z,33.47
2018-07-02T13:47:01.946Z,33.36
2018-07-02T13:48:11.388Z,33.28
2018-07-02T13:49:21.102Z,33.38
2018-07-02T13:50:30.805Z,33.47
2018-07-02T13:51:40.472Z,33.38
2018-07-02T13:52:50.402Z,33.17
2018-07-02T13:53:59.807Z,33.38
2018-07-02T13:55:09.485Z,33.38
2018-07-02T13:56:19.605Z,33.47
2018-07-02T13:57:29.034Z,33.38
2018-07-02T13:58:38.448Z,33.47
2018-07-02T13:59:48.168Z,33.38
2018-07-02T14:00:57.355Z,33.38
2018-07-02T14:02:06.514Z,33.47
2018-07-02T14:03:16.454Z,33.28
2018-07-02T14:04:26.116Z,33.47
2018-07-02T14:05:35.351Z,33.38
2018-07-02T14:06:44.762Z,33.38
2018-07-02T14:07:54.691Z,33.47
2018-07-02T14:09:04.102Z,33.38
2018-07-02T14:10:13.264Z,33.47
2018-07-02T14:11:22.725Z,33.47
2018-07-02T14:12:32.134Z,33.38
2018-07-02T14:13:41.838Z,33.47
2018-07-02T14:14:51.266Z,33.47
2018-07-02T14:16:00.155Z,33.47
2018-07-02T14:17:09.821Z,33.47
2018-07-02T14:18:19.241Z,33.28
2018-07-02T14:19:28.665Z,33.28
2018-07-02T14:20:38.593Z,33.18
2018-07-02T14:21:48.260Z,33.18
2018-07-02T14:22:57.671Z,33.18
2018-07-02T14:24:07.593Z,33.38
2018-07-02T14:25:17.244Z,33.38
2018-07-02T14:26:26.403Z,33.18
2018-07-02T14:27:36.082Z,33.38
2018-07-02T14:28:44.982Z,33.28
2018-07-02T14:29:54.433Z,33.47
2018-07-02T14:31:03.842Z,33.38
2018-07-02T14:32:12.999Z,33.28
2018-07-02T14:33:22.161Z,33.38
2018-07-02T14:34:31.570Z,33.47
2018-07-02T14:35:40.710Z,33.38
2018-07-02T14:36:50.645Z,33.28
2018-07-02T14:38:00.059Z,33.39
2018-07-02T14:39:09.277Z,33.47
2018-07-02T14:40:18.944Z,33.28
2018-07-02T14:41:28.354Z,33.28
2018-07-02T14:42:37.502Z,33.39
2018-07-02T14:43:47.168Z,33.2
2018-07-02T14:44:56.815Z,33.29
2018-07-02T14:46:07.965Z,33.28
2018-07-02T14:47:17.379Z,33.47
2018-07-02T14:48:26.589Z,33.18
2018-07-02T14:49:35.742Z,33.47
2018-07-02T14:50:45.427Z,33.38
2018-07-02T14:51:54.598Z,33.47
2018-07-02T14:53:04.026Z,33.38
2018-07-02T14:54:13.482Z,33.57
2018-07-02T14:55:23.057Z,33.57
2018-07-02T14:56:32.458Z,33.67
2018-07-02T14:57:41.868Z,33.38
2018-07-02T14:58:50.777Z,33.69
2018-07-02T15:00:00.449Z,33.39